Hauptseite
METAR-TAF:

METAR-TAF

Flughäfen :

Flugplatz Laupheim

Laupheim, Deutschland

Breite: 48-13N, Länge: 009-55E, Höhe: 538 m

Beobachtung

Neuester Wetterbericht von vor 31 Minuten, um 03:56 UTC
Wind 5 kt aus West/Nordwest
Temperatur 6°C
Luftfeuchtigkeit 75%
Luftdruck 1020 hPa
Sichtweite: 8000 m
Leicht bewölkt in der Höhe von 3500 ft
Durchbrochene Bewölkung in der Höhe von 5000 ft

METAR: ETHL 250356Z 29005KT 8000 FEW035 BKN050 06/02 Q1020 BLU

Zeit: 05:27 (04:27 UTC)


TAF: fehlend

Wetterbeobachtungen und Prognosen von mehr als 4000 Flughäfen (METAR und TAF Bericht).

Die verfügbaren Stationen werden durch gelbe und rote Markierungen auf der Karte dargestellt.

Führen Sie die Maus auf sie, um den Namen der Station zu sehen.

Darauf klicken, um die Beobachtung von Wetterbeobachtungen und Prognosen zu sehen.

Um die Karte zu ändern : klicken Sie auf den grünen Tasten mit einem schwarzen Kreuz Zum Vergrößern, auf den grünen Button mit einem Gedankenstrich zu verkleinern, oder auf die grünen Pfeile für benachbarte Karten.


METAR-TAF: